Latest Coastal Weather Observations for Warrnambool

IDV60701

Issued at 3:31 am EST Monday 2 May 2016 (issued every 10 minutes, with the page automatically refreshed every 10 minutes)

About coastal observations | Map of coastal stations | Coastal observations for VIC | Marine services | Other Formats
Station Details ID: 090186 Name: WARRNAMBOOL AIRPORT NDB Lat: -38.29 Lon: 142.45 Height: 70.8 m
Data from the previous 72 hours. | See also: Recent months at Warrnambool
Date/Time
EST
Temp

°C
Wind Pressure Rain
since 9am
mm
Weather Cloud Vis
km
Sea
Height
m
Swell
Dir
 
Speed
knots
Gust
knots
hPa Trend Height
m
Period
s
Dir
02/03:30am 9.1 NNW 13 17 1012.2 - 5.6 - Partly cloudy 10 - - - -
02/03:00am 8.9 NNW 14 18 1012.7 - 5.6 - - 10 - - - -
02/02:30am 9.1 NNW 14 17 1013.0 - 5.6 - Partly cloudy 10 - - - -
02/02:00am 9.1 N 13 18 1013.1 - 5.6 - Partly cloudy 10 - - - -
02/01:30am 8.5 N 11 13 1013.5 - 5.6 - Partly cloudy 10 - - - -
02/01:00am 9.1 N 11 14 1013.6 - 5.6 - Partly cloudy 10 - - - -
02/12:30am 8.7 NNW 10 13 1014.0 - 5.6 - - 10 - - - -
02/12:00am 8.8 NNW 10 14 1014.2 - 5.6 - Partly cloudy 10 - - - -
 
Date/Time
EST
Temp

°C
Wind Pressure Rain
since 9am
mm
Weather Cloud Vis
km
Sea
Height
m
Swell
Dir
 
Speed
knots
Gust
knots
hPa Trend Height
m
Period
s
Dir
01/11:30pm 9.0 N 9 12 1014.4 - 5.6 - Partly cloudy 10 - - - -
01/11:00pm 9.1 NNW 10 14 1014.7 - 5.6 - Partly cloudy 10 - - - -
01/10:30pm 9.0 NNW 9 11 1014.9 - 5.6 - Partly cloudy 10 - - - -
01/10:00pm 9.6 NNW 10 12 1014.9 - 5.6 - Partly cloudy 10 - - - -
01/09:30pm 10.1 NNW 13 17 1014.9 - 5.6 - Partly cloudy 10 - - - -
01/09:00pm 9.3 NNW 11 14 1014.7 - 5.6 - Mostly cloudy 10 - - - -
01/08:30pm 8.9 NW 11 14 1014.6 - 5.6 - - 10 - - - -
01/08:00pm 8.7 NW 9 11 1014.4 - 5.6 - - 10 - - - -
01/07:30pm 8.1 NW 7 9 1014.5 - 5.6 - Partly cloudy 10 - - - -
01/07:00pm 8.3 NW 6 8 1014.4 - 5.6 - Partly cloudy 10 - - - -
01/06:30pm 9.8 WNW 6 8 1014.1 - 5.6 - Partly cloudy 10 - - - -
01/06:00pm 10.7 W 9 11 1013.9 - 5.6 Rain Mostly cloudy 10 - - - -
01/05:30pm 11.4 W 9 12 1013.7 - 5.6 - Partly cloudy 10 - - - -
01/05:00pm 12.2 W 14 17 1013.6 - 5.6 - - 10 - - - -
01/04:30pm 13.0 WSW 17 23 1013.1 - 5.6 - - 10 - - - -
01/04:15pm 13.5 W 16 26 1012.8 - 5.6 - Partly cloudy 10 - - - -
01/04:00pm 13.6 W 17 23 1012.6 - 5.6 - Partly cloudy 10 - - - -
01/03:30pm 14.1 WSW 20 25 1012.3 - 5.6 - - 10 - - - -
01/03:00pm 13.7 WSW 23 29 1011.8 - 5.6 - Mostly cloudy 10 - - - -
01/02:30pm 13.7 W 20 28 1011.3 - 5.6 - Partly cloudy 10 - - - -
01/02:05pm 14.6 W 22 32 1010.9 - 5.6 - Partly cloudy 10 - - - -
01/02:00pm 14.3 W 22 29 1010.9 - 5.6 - Partly cloudy 10 - - - -
01/01:53pm 14.0 W 19 29 1011.0 - 5.6 - Partly cloudy 10 - - - -
01/01:30pm 13.0 W 17 23 1010.8 - 5.6 - Partly cloudy 10 - - - -
01/01:00pm 11.9 W 22 33 1010.6 - 5.6 - Partly cloudy 6 - - - -
01/12:50pm 12.9 WNW 19 32 1010.4 - 5.0 - Partly cloudy 10 - - - -
01/12:30pm 12.6 NW 17 25 1010.0 - 4.6 - Partly cloudy 10 - - - -
01/12:18pm 13.4 WNW 15 25 1010.0 - 4.6 - Partly cloudy 10 - - - -
01/12:00pm 12.0 NW 15 22 1010.1 - 4.6 Rain Partly cloudy 10 - - - -
01/11:30am 10.7 WNW 13 20 1010.0 - 4.6 - Partly cloudy 10 - - - -
01/11:00am 10.3 NW 17 23 1009.3 - 4.0 - Partly cloudy 10 - - - -
01/10:30am 10.1 NW 12 17 1008.8 - 3.2 - Partly cloudy 10 - - - -
01/10:00am 9.8 NW 15 20 1008.3 - 2.2 - Partly cloudy 10 - - - -
01/09:30am 9.7 NW 15 19 1008.0 - 1.8 - Partly cloudy 10 - - - -
01/09:09am 9.5 WNW 15 21 1008.0 - 1.2 - Partly cloudy 7 - - - -
01/09:00am 9.6 W 19 23 1007.9 - 16.8 Rain Cloudy 6 - - - -
01/08:54am 9.7 W 21 28 1007.7 - 16.4 - Partly cloudy 5 - - - -
01/08:45am 9.9 WNW 22 31 1007.4 - 15.2 - Partly cloudy 5 - - - -
01/08:41am 10.1 WNW 21 31 1007.2 - 14.8 - Partly cloudy 8 - - - -
01/08:40am 10.2 WNW 20 29 1007.2 - 14.8 - Partly cloudy 8 - - - -
01/08:36am 10.5 WNW 17 27 1007.0 - 14.2 - Partly cloudy 10 - - - -
01/08:33am 10.5 WNW 18 27 1006.9 - 14.2 - Partly cloudy 7 - - - -
01/08:30am 10.5 WNW 18 26 1006.8 - 14.2 - Partly cloudy 6 - - - -
01/08:05am 11.2 NW 15 25 1005.8 - 11.2 - Partly cloudy 4 - - - -
01/08:00am 11.1 NW 11 17 1005.6 - 11.0 - Partly cloudy 8 - - - -
01/07:37am 11.0 NW 13 19 1005.1 - 8.4 - Partly cloudy 5 - - - -
01/07:30am 10.9 NW 14 18 1004.6 - 7.2 - Partly cloudy 10 - - - -
01/07:18am 10.9 NW 14 19 1004.2 - 7.2 - Partly cloudy 10 - - - -
01/07:03am 10.9 WNW 11 19 1004.2 - 7.2 - Partly cloudy 10 - - - -
01/07:00am 11.0 WNW 12 19 1004.1 - 7.2 - Partly cloudy 10 - - - -
01/06:30am 11.2 NW 14 21 1003.2 - 7.0 - Partly cloudy 10 - - - -
01/06:00am 11.2 NW 17 22 1002.8 - 6.6 Showers Mostly cloudy 10 - - - -
01/05:30am 11.7 NW 15 21 1002.6 - 5.8 - Partly cloudy 10 - - - -
01/05:28am 11.7 NW 16 23 1002.6 - 5.8 - Partly cloudy 10 - - - -
01/05:17am 11.8 NW 16 27 1002.2 - 5.8 - Partly cloudy 5 - - - -
01/05:14am 11.9 NW 15 27 1002.2 - 5.8 - Partly cloudy 7 - - - -
01/05:00am 12.2 NW 16 24 1001.9 - 5.6 - Partly cloudy 10 - - - -
01/04:30am 12.9 NW 15 21 1001.7 - 5.6 - Partly cloudy 10 - - - -
01/04:00am 13.3 WNW 16 23 1001.4 - 5.6 - Partly cloudy 10 - - - -
01/03:32am 14.5 NW 20 30 1000.9 - 5.6 - Partly cloudy 10 - - - -
01/03:30am 14.6 NW 22 31 1000.8 - 5.6 - Partly cloudy 10 - - - -
01/03:16am 15.4 NW 21 31 1000.1 - 5.6 - Partly cloudy 10 - - - -
01/03:00am 15.2 NNW 19 25 1000.2 - 5.6 Rain Cloudy 10 - - - -
01/02:30am 15.3 N 19 24 1000.5 - 5.6 - Partly cloudy 10 - - - -
01/02:00am 16.1 NNW 18 25 1001.2 - 5.6 - Partly cloudy 10 - - - -
01/01:30am 16.2 NNW 24 31 1001.1 - 5.6 - Partly cloudy 10 - - - -
01/01:09am 15.8 NNW 21 31 1001.4 - 5.4 - Partly cloudy 10 - - - -
01/01:00am 15.6 N 22 30 1001.2 - 5.4 - Cloudy 10 - - - -
01/12:38am 14.9 N 19 29 1001.1 - 5.4 - Partly cloudy 10 - - - -
01/12:30am 14.2 N 18 25 1001.1 - 5.4 - Partly cloudy 10 - - - -
01/12:19am 13.8 N 17 29 1001.9 - 5.4 - Partly cloudy 10 - - - -
01/12:17am 13.1 N 15 22 1002.1 - 5.2 - Partly cloudy 10 - - - -
01/12:06am 13.8 NNW 19 41 1001.9 - 5.2 - Partly cloudy 1 - - - -
01/12:00am 13.9 NW 22 41 1003.0 - 4.6 Rain Cloudy 1 - - - -
 
Date/Time
EST
Temp

°C
Wind Pressure Rain
since 9am
mm
Weather Cloud Vis
km
Sea
Height
m
Swell
Dir
 
Speed
knots
Gust
knots
hPa Trend Height
m
Period
s
Dir
30/11:57pm 15.0 NNW 20 41 1003.5 - 3.2 - Partly cloudy 4 - - - -
30/11:56pm 16.5 NNW 18 39 1003.5 - 1.2 - Partly cloudy 10 - - - -
30/11:54pm 18.1 N 16 24 1002.8 - 0.0 - Partly cloudy 10 - - - -
30/11:30pm 17.9 NNE 17 24 1000.7 - 0.0 - - 10 - - - -
30/11:00pm 18.1 NNE 17 23 1001.8 - 0.0 - - 10 - - - -
30/10:30pm 17.0 NNE 13 19 1002.9 - 0.0 - Partly cloudy 10 - - - -
30/10:00pm 17.4 NNE 11 15 1003.9 - 0.0 - Partly cloudy 10 - - - -
30/09:30pm 17.0 NNE 10 13 1004.8 - 0.0 - Partly cloudy 10 - - - -
30/09:00pm 16.4 NNE 11 14 1005.3 - 0.0 Showers Partly cloudy 10 - - - -
30/08:30pm 17.0 NNE 11 15 1005.8 - 0.0 - Partly cloudy 10 - - - -
30/08:00pm 15.4 NNE 8 9 1006.2 - 0.0 - Partly cloudy 10 - - - -
30/07:30pm 14.2 NNE 7 8 1006.5 - 0.0 - - 10 - - - -
30/07:00pm 14.9 N 7 8 1006.8 - 0.0 - - 10 - - - -
30/06:30pm 15.2 N 6 8 1006.8 - 0.0 - - 10 - - - -
30/06:00pm 16.4 N 6 8 1006.5 - 0.0 - - 10 - - - -
30/05:30pm 19.0 N 9 11 1006.8 - 0.0 - - 10 - - - -
30/05:00pm 21.5 NNW 13 19 1007.2 - 0.0 - - 10 - - - -
30/04:30pm 22.3 NNW 12 19 1007.4 - 0.0 - - 10 - - - -
30/04:00pm 22.8 NNW 16 21 1007.7 - 0.0 - - 10 - - - -
30/03:30pm 22.9 NNW 20 25 1007.6 - 0.0 - - 10 - - - -
30/03:00pm 23.1 NNW 19 23 1008.0 - 0.0 - - 10 - - - -
30/02:30pm 22.7 NNW 18 25 1008.4 - 0.0 - - 10 - - - -
30/02:00pm 22.8 NNW 18 27 1008.9 - 0.0 - - 10 - - - -
30/01:31pm 22.5 NW 17 27 1009.1 - 0.0 - - 10 - - - -
30/01:30pm 22.9 NW 17 24 1009.1 - 0.0 - - 10 - - - -
30/01:00pm 22.4 NNW 19 25 1009.9 - 0.0 - - 10 - - - -
30/12:30pm 21.8 NW 16 22 1010.2 - 0.0 - - 10 - - - -
30/12:00pm 21.2 NW 19 25 1010.5 - 0.0 - - 10 - - - -
30/11:30am 20.9 NNW 18 23 1010.8 - 0.0 - Partly cloudy 10 - - - -
30/11:00am 20.2 NNW 18 27 1011.1 - 0.0 - Partly cloudy 10 - - - -
30/10:30am 19.7 NNW 17 22 1011.2 - 0.0 - - 10 - - - -
30/10:00am 19.3 N 13 18 1011.5 - 0.0 - Partly cloudy 10 - - - -
30/09:30am 18.0 N 12 16 1011.7 - 0.0 - - 10 - - - -
30/09:00am 17.0 N 11 14 1012.0 - 5.6 - - 10 - - - -
30/08:30am 15.6 N 11 13 1012.0 - 5.6 - Partly cloudy - - - - -
30/08:00am 14.8 N 11 14 1011.9 - 5.6 - Partly cloudy - - - - -
30/07:30am 14.6 N 11 15 1011.6 - 5.6 - Partly cloudy - - - - -
30/07:00am 14.1 N 12 15 1011.5 - 5.6 - Partly cloudy - - - - -
30/06:30am 14.0 N 10 13 1011.3 - 5.6 - Partly cloudy - - - - -
30/06:00am 13.4 N 9 11 1011.2 - 5.6 Recent precip. Mostly clear - - - - -
30/05:30am 13.0 N 8 10 1011.2 - 5.6 - - - - - - -
30/05:00am 13.1 N 9 10 1011.3 - 5.2 - - - - - - -
30/04:30am 12.1 N 7 9 1011.2 - 5.2 - - - - - - -
30/04:00am 13.3 N 9 11 1011.2 - 5.2 - - - - - - -
30/03:30am 14.1 N 11 14 1011.0 - 5.2 - - - - - - -
30/03:00am 12.5 N 7 9 1011.3 - 5.2 - Partly cloudy - - - - -
30/02:30am 12.2 N 9 9 1011.4 - 5.2 - Partly cloudy - - - - -
30/02:00am 12.0 N 7 8 1011.7 - 5.2 - - - - - - -
30/01:30am 12.4 N 8 9 1011.7 - 5.2 - - - - - - -
30/01:00am 12.6 N 8 9 1011.9 - 5.2 - Partly cloudy - - - - -
30/12:30am 12.5 N 7 9 1012.0 - 5.2 - Partly cloudy - - - - -
30/12:00am 12.6 N 8 9 1012.1 - 5.2 - Mostly cloudy - - - - -
 
Date/Time
EST
Temp

°C
Wind Pressure Rain
since 9am
mm
Weather Cloud Vis
km
Sea
Height
m
Swell
Dir
 
Speed
knots
Gust
knots
hPa Trend Height
m
Period
s
Dir
29/11:30pm 12.3 NNE 8 9 1012.4 - 5.2 - - 10 - - - -
29/11:00pm 12.5 NNE 8 9 1012.9 - 5.2 - - 10 - - - -
29/10:30pm 13.0 N 8 9 1013.0 - 5.2 - Partly cloudy 10 - - - -
29/10:00pm 13.5 N 10 12 1013.0 - 5.2 - Partly cloudy 10 - - - -
29/09:30pm 13.3 N 10 12 1012.8 - 5.2 - - 10 - - - -
29/09:00pm 13.5 N 9 10 1012.7 - 5.2 - - 10 - - - -
29/08:30pm 13.5 N 8 10 1012.6 - 5.2 - - 10 - - - -
29/08:00pm 13.7 N 8 9 1012.5 - 5.2 - - 10 - - - -
29/07:30pm 14.4 N 8 10 1012.4 - 5.2 - Partly cloudy 10 - - - -
29/07:00pm 14.6 N 7 9 1012.3 - 5.2 - Partly cloudy 10 - - - -
29/06:30pm 14.8 N 8 11 1012.2 - 5.2 - - 10 - - - -
29/06:00pm 15.4 N 9 12 1011.8 - 5.2 - Partly cloudy 10 - - - -
29/05:30pm 15.9 N 9 11 1011.6 - 5.2 - Partly cloudy 10 - - - -
29/05:00pm 16.2 N 9 11 1011.5 - 5.2 - Partly cloudy 10 - - - -
29/04:30pm 16.4 NNW 10 12 1011.5 - 5.2 - Partly cloudy 10 - - - -
29/04:00pm 16.6 N 10 13 1011.3 - 5.2 - Partly cloudy 10 - - - -
29/03:30pm 16.3 NNW 11 14 1011.3 - 5.2 - Partly cloudy 10 - - - -
29/03:00pm 15.7 NNW 12 17 1010.9 - 5.2 Rain Mostly cloudy 10 - - - -
29/02:30pm 15.2 NNW 14 19 1011.0 - 5.0 - Partly cloudy 10 - - - -
29/02:00pm 15.2 NNW 13 18 1010.8 - 4.0 - Partly cloudy 6 - - - -
29/01:30pm 15.7 NNW 11 16 1011.0 - 2.4 - Cloudy 10 - - - -
29/01:05pm 15.5 NNW 14 18 1011.3 - 2.2 - Partly cloudy 10 - - - -
29/01:02pm 15.4 NNW 14 20 1011.2 - 2.2 - Partly cloudy 10 - - - -
29/01:00pm 15.4 NW 15 21 1011.3 - 2.2 - Partly cloudy 10 - - - -
29/12:48pm 15.9 NW 13 17 1011.5 - 1.8 - Partly cloudy 3 - - - -
29/12:42pm 16.1 NNW 14 18 1011.6 - 1.6 - Partly cloudy 5 - - - -
29/12:30pm 16.4 NNW 15 22 1011.5 - 0.6 - Partly cloudy 10 - - - -
29/12:00pm 16.9 NNW 16 23 1011.6 - 0.2 Showers Cloudy 10 - - - -
29/11:30am 16.9 N 16 21 1011.8 - 0.0 - Cloudy 10 - - - -
29/11:00am 17.1 N 14 19 1011.9 - 0.0 - Partly cloudy 10 - - - -
29/10:30am 16.9 N 16 22 1012.2 - 0.0 - Cloudy 10 - - - -
29/10:00am 16.9 N 13 17 1012.5 - 0.0 - Cloudy 10 - - - -
29/09:30am 17.1 N 14 18 1012.5 - 0.0 - Cloudy 10 - - - -
29/09:00am 17.1 N 12 15 1012.4 - 2.4 - Cloudy 10 - - - -
29/08:30am 17.7 NNW 13 18 1012.0 - 2.4 - Cloudy 10 - - - -
29/08:00am 17.3 N 13 18 1012.0 - 2.4 - Partly cloudy 10 - - - -
29/07:30am 17.7 NNW 14 19 1012.3 - 2.4 - Partly cloudy 10 - - - -
29/07:00am 17.9 NNW 13 18 1012.2 - 2.4 - - 10 - - - -
29/06:30am 18.3 NNW 16 23 1012.5 - 2.4 - - 10 - - - -
29/06:00am 17.7 NNW 13 17 1012.4 - 2.4 Rain Cloudy 10 - - - -
29/05:30am 16.8 NNW 14 20 1012.9 - 2.4 - Partly cloudy 10 - - - -
29/05:24am 17.0 NW 15 21 1013.0 - 2.4 - Cloudy 10 - - - -
29/05:00am 17.1 N 8 11 1011.6 - 1.8 - Cloudy 10 - - - -
29/04:30am 17.3 NNE 12 15 1011.1 - 1.8 - Cloudy 10 - - - -
29/04:00am 16.0 NNE 11 14 1011.5 - 1.8 - Cloudy 10 - - - -

Other Formats:

Comma delimited format used in spreadsheet applications
http://www.bom.gov.au/fwo/IDV60701/IDV60701.94837.axf

JavaScript Object Notation format (JSON) in row-major order
http://www.bom.gov.au/fwo/IDV60701/IDV60701.94837.json